createdAt,value
2023-04-18T00:08:44.158Z,8.81
2023-04-18T00:18:43.168Z,8.81
2023-04-18T00:28:43.405Z,8.79
2023-04-18T00:38:43.597Z,8.74
2023-04-18T00:48:43.788Z,8.70
2023-04-18T00:58:43.994Z,8.66
2023-04-18T01:08:44.243Z,8.70
2023-04-18T01:18:44.436Z,8.61
2023-04-18T01:28:44.703Z,8.61
2023-04-18T01:38:44.896Z,8.56
2023-04-18T01:48:45.171Z,8.58
2023-04-18T01:58:45.191Z,8.59
2023-04-18T02:08:45.447Z,8.61
2023-04-18T02:18:45.487Z,8.41
2023-04-18T02:28:47.665Z,8.05
2023-04-18T02:38:45.878Z,7.63
2023-04-18T02:48:46.086Z,7.49
2023-04-18T02:58:46.271Z,7.42
2023-04-18T03:08:48.512Z,7.35
2023-04-18T03:18:46.703Z,7.42
2023-04-18T03:28:46.935Z,7.57
2023-04-18T03:38:47.163Z,7.71
2023-04-18T03:48:47.397Z,7.82
2023-04-18T03:58:47.620Z,7.63
2023-04-18T04:08:47.875Z,7.60
2023-04-18T04:18:48.110Z,7.53
2023-04-18T04:28:48.350Z,7.57
2023-04-18T04:38:48.545Z,7.45
2023-04-18T04:48:48.810Z,7.27
2023-04-18T04:58:49.018Z,7.21
2023-04-18T05:08:49.295Z,7.34
2023-04-18T05:18:49.300Z,7.45
2023-04-18T05:28:52.627Z,7.48
2023-04-18T05:38:49.635Z,7.60
2023-04-18T05:48:50.093Z,7.95
2023-04-18T05:58:50.190Z,8.22
2023-04-18T06:08:50.310Z,8.50
2023-04-18T06:18:50.325Z,8.52
2023-04-18T06:28:53.745Z,8.87
2023-04-18T06:38:50.763Z,9.15
2023-04-18T06:48:51.573Z,9.66
2023-04-18T06:58:51.171Z,9.96
2023-04-18T07:08:53.950Z,10.42
2023-04-18T07:18:51.662Z,10.64
2023-04-18T07:28:51.888Z,11.36
2023-04-18T07:38:52.102Z,11.73
2023-04-18T07:48:52.361Z,12.20
2023-04-18T07:58:52.434Z,12.35
2023-04-18T08:08:52.726Z,12.57
2023-04-18T08:18:52.729Z,12.70
2023-04-18T08:28:56.065Z,13.62
2023-04-18T08:38:53.065Z,14.00
2023-04-18T08:48:53.369Z,14.57
2023-04-18T08:58:53.374Z,15.09
2023-04-18T09:08:53.637Z,15.23
2023-04-18T09:18:53.835Z,15.19
2023-04-18T09:28:54.125Z,16.07
2023-04-18T09:38:56.658Z,16.33
2023-04-18T09:48:54.378Z,16.67
2023-04-18T09:58:54.386Z,17.08
2023-04-18T10:08:54.654Z,16.76
2023-04-18T10:18:54.663Z,17.16
2023-04-18T10:28:55.926Z,16.63
2023-04-18T10:38:55.136Z,17.59
2023-04-18T10:48:55.388Z,18.17
2023-04-18T10:58:55.584Z,19.19
2023-04-18T11:08:55.864Z,18.88
2023-04-18T11:18:55.911Z,18.72
2023-04-18T11:28:56.175Z,19.55
2023-04-18T11:38:56.371Z,19.32
2023-04-18T11:48:56.590Z,19.62
2023-04-18T11:58:56.790Z,19.40
2023-04-18T12:08:57.010Z,20.05
2023-04-18T12:18:57.225Z,20.01
2023-04-18T12:28:57.418Z,20.33
2023-04-18T12:38:57.634Z,20.58
2023-04-18T12:48:57.901Z,20.88
2023-04-18T12:58:57.926Z,20.99
2023-04-18T13:08:58.278Z,20.64
2023-04-18T13:18:58.286Z,20.94
2023-04-18T13:28:58.544Z,21.13
2023-04-18T13:38:58.755Z,20.67
2023-04-18T13:48:59.022Z,21.59
2023-04-18T13:58:59.216Z,20.66
2023-04-18T14:08:59.496Z,20.57
2023-04-18T14:18:59.511Z,21.64
2023-04-18T14:28:59.761Z,20.55
2023-04-18T14:38:59.972Z,20.48
2023-04-18T14:49:00.253Z,21.07
2023-04-18T14:59:00.472Z,21.44
2023-04-18T15:09:00.716Z,21.14
2023-04-18T15:19:00.997Z,19.88
2023-04-18T15:29:01.087Z,18.98
2023-04-18T15:39:01.380Z,20.48
2023-04-18T15:49:01.495Z,20.14
2023-04-18T15:59:01.460Z,20.29
2023-04-18T16:09:01.728Z,19.95
2023-04-18T16:19:01.736Z,19.06
2023-04-18T16:29:01.981Z,18.11
2023-04-18T16:39:02.338Z,17.49
2023-04-18T16:49:02.474Z,17.04
2023-04-18T16:59:02.692Z,16.79
2023-04-18T17:09:02.636Z,16.43
2023-04-18T17:19:02.828Z,16.04
2023-04-18T17:29:03.906Z,15.65
2023-04-18T17:39:03.380Z,15.25
2023-04-18T17:49:03.479Z,15.11
2023-04-18T17:59:03.692Z,14.94
2023-04-18T18:09:03.942Z,14.65
2023-04-18T18:19:04.430Z,14.28
2023-04-18T18:29:04.410Z,14.04
2023-04-18T18:39:04.638Z,13.92
2023-04-18T18:49:08.224Z,13.75
2023-04-18T18:59:05.048Z,13.70
2023-04-18T19:09:05.047Z,13.44
2023-04-18T19:19:05.369Z,13.26
2023-04-18T19:29:06.630Z,13.14
2023-04-18T19:39:05.350Z,12.85
2023-04-18T19:49:05.994Z,12.67
2023-04-18T19:59:06.094Z,12.70
2023-04-18T20:09:05.853Z,12.78
2023-04-18T20:19:06.134Z,12.74
2023-04-18T20:29:06.553Z,12.68
2023-04-18T20:39:08.333Z,12.53
2023-04-18T20:49:06.703Z,12.41
2023-04-18T20:59:06.781Z,12.31
2023-04-18T21:09:07.056Z,12.21
2023-04-18T21:19:07.059Z,12.10
2023-04-18T21:29:07.348Z,11.94
2023-04-18T21:39:07.370Z,11.76
2023-04-18T21:49:07.607Z,11.79
2023-04-18T21:59:07.826Z,11.47
2023-04-18T22:09:08.072Z,11.40
2023-04-18T22:19:08.277Z,11.17
2023-04-18T22:29:08.536Z,10.89
2023-04-18T22:39:08.741Z,10.74
2023-04-18T22:49:09.024Z,10.53
2023-04-18T22:59:09.031Z,10.25
2023-04-18T23:09:09.291Z,9.99
2023-04-18T23:19:09.318Z,9.90
2023-04-18T23:29:09.577Z,9.74
2023-04-18T23:39:09.791Z,9.57
2023-04-18T23:49:10.034Z,9.35
2023-04-18T23:59:10.262Z,9.28
